LIMP/PMF METAR and TAF weather

Enter ICAO airport designator
Station Type Date Time Source
LIMP METAR 2024/06/15 20:50 UTC NOAA

LIMP 152050Z 25008KT CAVOK 21/12 Q1010


Station Type Date Time Source
LIMP Decoded METAR 2024/06/15 20:50 UTC NOAA

Parma, Italy (LIMP) 44-49-17N 010-17-41E
Jun 15, 2024 - 04:50 PM EDT / 2024.06.15 2050 UTC
Wind: from the WSW (250 degrees) at 9 MPH (8 KT):0
Visibility: greater than 7 mile(s):0
Temperature: 69 F (21 C)
Dew Point: 53 F (12 C)
Relative Humidity: 56%
Pressure (altimeter): 29.83 in. Hg (1010 hPa)
ob: LIMP 152050Z 25008KT CAVOK 21/12 Q1010
cycle: 21

Station Type Date Time Source
LIMP TAF 2024/06/15 18:09 UTC NOAA